Latest Weather Observations for Kingscote

IDS60801

Issued at 10:42 pm CDT Friday 15 November 2019 (issued every 10 minutes, with the page automatically refreshed every 10 minutes)

About weather observations | Map of weather stations | Latest weather observations for SA | Other Formats
Station Details ID: 022841 Name: KINGSCOTE AERO Lat: -35.71 Lon: 137.52 Height: 6.23 m
Data from the previous 72 hours. | See also: Recent months at Kingscote
Date/Time
CDT
Temp
°C
App
Temp
°C
Dew
Point
°C
Rel
Hum
%
Delta-T
°C
Wind Press
QNH
hPa
Press
MSL
hPa
Rain since
9am
mm
Dir  Spd
km/h
Gust
km/h
Spd
kts
Gust
kts
15/10:30pm 10.6 7.9 5.6 71 2.3 SSW 9 11 5 6 1021.6 1021.6 0.0
15/10:00pm 11.8 8.5 6.3 69 2.6 SSW 13 15 7 8 1021.5 1021.5 0.0
15/09:30pm 12.4 8.8 6.9 69 2.6 S 15 20 8 11 1021.0 1021.0 0.0
15/09:00pm 13.0 9.2 7.5 69 2.7 S 17 24 9 13 1020.6 1020.6 0.0
15/08:30pm 12.6 9.0 6.6 67 2.9 SSW 15 20 8 11 1020.3 1020.3 0.0
15/08:00pm 13.6 8.8 7.2 65 3.1 SSW 22 30 12 16 1020.0 1020.0 0.0
15/07:30pm 14.6 10.0 8.3 66 3.2 SSW 22 30 12 16 1019.4 1019.4 0.0
15/07:00pm 15.3 9.5 8.1 62 3.6 SSW 28 35 15 19 1019.0 1019.0 0.0
15/06:30pm 16.1 10.3 8.1 59 4.0 SSW 28 37 15 20 1018.6 1018.6 0.0
15/06:00pm 17.1 11.6 9.0 59 4.2 SW 28 37 15 20 1018.3 1018.3 0.0
15/05:30pm 17.0 11.1 9.2 60 4.0 SW 30 37 16 20 1018.0 1018.0 0.0
15/05:00pm 18.1 12.0 8.1 52 5.1 SSW 30 43 16 23 1017.6 1017.6 0.0
15/04:30pm 18.2 12.0 9.5 57 4.6 SSW 32 41 17 22 1017.3 1017.3 0.0
15/04:00pm 18.4 13.2 8.9 54 4.9 SSW 26 43 14 23 1017.2 1017.2 0.0
15/03:30pm 18.9 14.3 8.3 50 5.5 SW 22 41 12 22 1017.3 1017.3 0.0
15/03:00pm 18.3 13.5 8.8 54 4.9 SW 24 37 13 20 1017.3 1017.3 0.0
15/02:30pm 17.9 12.9 8.2 53 5.0 SW 24 33 13 18 1017.2 1017.2 0.0
15/02:00pm 17.8 14.2 8.4 54 4.8 SSW 17 26 9 14 1017.2 1017.2 0.0
15/01:30pm 18.2 13.7 8.7 54 4.9 WSW 22 30 12 16 1017.1 1017.1 0.0
15/01:00pm 18.3 14.2 8.6 53 5.0 WSW 20 30 11 16 1017.2 1017.2 0.0
15/12:30pm 16.9 12.7 8.1 56 4.5 WSW 20 33 11 18 1017.2 1017.2 0.0
15/12:00pm 15.8 11.7 8.5 62 3.7 W 20 30 11 16 1017.3 1017.3 0.0
15/11:30am 16.4 11.9 8.4 59 4.1 WSW 22 32 12 17 1017.3 1017.3 0.0
15/11:00am 16.6 12.2 7.3 54 4.6 WSW 20 32 11 17 1017.1 1017.1 0.0
15/10:30am 16.4 11.2 7.3 55 4.5 WSW 24 35 13 19 1017.3 1017.3 0.0
15/10:00am 15.7 9.7 7.0 56 4.3 WSW 28 39 15 21 1017.1 1017.1 0.0
15/09:30am 14.9 9.5 7.9 63 3.5 SW 26 37 14 20 1017.2 1017.2 0.0
15/09:00am 14.9 10.4 7.0 59 3.9 WSW 20 30 11 16 1017.0 1017.0 0.0
15/08:30am 14.6 10.2 7.4 62 3.5 W 20 28 11 15 1016.6 1016.6 0.0
15/08:00am 14.5 10.6 7.3 62 3.5 WSW 17 24 9 13 1016.2 1016.2 0.0
15/07:30am 14.1 10.3 7.6 65 3.2 WSW 17 26 9 14 1016.0 1016.0 0.0
15/07:00am 13.7 10.4 7.9 68 2.9 W 15 17 8 9 1015.8 1015.8 0.0
15/06:30am 13.5 10.9 7.9 69 2.8 W 11 13 6 7 1015.5 1015.5 0.0
15/06:00am 13.4 10.4 7.8 69 2.8 W 13 13 7 7 1015.4 1015.4 0.0
15/05:30am 13.5 10.5 7.7 68 2.8 W 13 17 7 9 1015.1 1015.1 0.0
15/05:00am 13.5 10.1 7.5 67 2.9 W 15 24 8 13 1015.0 1015.0 0.0
15/04:30am 13.6 9.8 7.4 66 3.0 W 17 20 9 11 1015.1 1015.1 0.0
15/04:00am 13.6 9.3 7.2 65 3.1 W 19 24 10 13 1015.1 1015.1 0.0
15/03:30am 13.6 10.1 7.2 65 3.1 W 15 20 8 11 1015.2 1015.2 0.0
15/03:00am 13.7 10.2 7.0 64 3.2 W 15 20 8 11 1015.3 1015.3 0.0
15/02:30am 13.8 9.5 7.1 64 3.3 W 19 26 10 14 1015.4 1015.4 0.0
15/02:00am 13.8 9.9 7.1 64 3.3 W 17 24 9 13 1015.8 1015.8 0.0
15/01:30am 13.8 9.5 7.1 64 3.3 W 19 28 10 15 1016.2 1016.2 0.0
15/01:00am 13.6 10.5 7.4 66 3.0 W 13 17 7 9 1016.7 1016.7 0.0
15/12:30am 13.5 10.9 7.9 69 2.8 W 11 15 6 8 1016.9 1016.9 0.0
15/12:00am 13.5 10.7 8.4 71 2.5 W 13 19 7 10 1017.1 1017.1 0.0
 
Date/Time
CDT
Temp
°C
App
Temp
°C
Dew
Point
°C
Rel
Hum
%
Delta-T
°C
Wind Press
QNH
hPa
Press
MSL
hPa
Rain since
9am
mm
Dir  Spd
km/h
Gust
km/h
Spd
kts
Gust
kts
14/11:30pm 13.3 10.2 8.8 74 2.3 W 15 20 8 11 1017.3 1017.3 0.0
14/11:00pm 13.5 9.5 9.0 74 2.3 WSW 20 28 11 15 1017.4 1017.4 0.0
14/10:30pm 13.8 11.0 8.6 71 2.6 W 13 17 7 9 1017.6 1017.6 0.0
14/10:00pm 13.9 10.8 8.9 72 2.5 WSW 15 20 8 11 1018.0 1018.0 0.0
14/09:30pm 14.3 9.9 8.9 70 2.7 WSW 22 30 12 16 1017.8 1017.8 0.0
14/09:00pm 14.6 10.4 7.6 63 3.5 W 19 26 10 14 1017.7 1017.7 0.0
14/08:30pm 14.7 9.5 7.3 61 3.6 WSW 24 32 13 17 1017.5 1017.5 0.0
14/08:00pm 14.6 9.7 8.3 66 3.2 WSW 24 30 13 16 1017.5 1017.5 0.0
14/07:30pm 15.0 10.2 8.7 66 3.2 W 24 32 13 17 1017.5 1017.5 0.0
14/07:00pm 15.9 10.5 7.9 59 4.0 WSW 26 35 14 19 1017.2 1017.2 0.0
14/06:30pm 16.8 11.6 7.4 54 4.7 W 24 33 13 18 1017.1 1017.1 0.0
14/06:00pm 16.8 11.3 7.7 55 4.6 WSW 26 35 14 19 1017.1 1017.1 0.0
14/05:30pm 18.8 13.3 7.6 48 5.7 WSW 26 39 14 21 1017.1 1017.1 0.0
14/05:00pm 19.1 13.8 6.9 45 6.1 W 24 35 13 19 1017.1 1017.1 0.0
14/04:30pm 18.8 12.2 7.9 49 5.6 WNW 32 43 17 23 1017.1 1017.1 0.0
14/04:00pm 18.5 11.9 8.5 52 5.2 WNW 33 44 18 24 1017.1 1017.1 0.0
14/03:49pm 19.5 13.1 8.5 49 5.7 WNW 32 50 17 27 1017.1 1017.1 0.0
14/03:30pm 19.0 12.1 7.4 47 5.9 W 33 46 18 25 1017.3 1017.3 0.0
14/03:23pm 19.4 12.6 7.8 47 5.9 WNW 33 46 18 25 1017.2 1017.2 0.0
14/03:00pm 19.8 13.9 7.5 45 6.3 WNW 28 39 15 21 1017.6 1017.6 0.0
14/02:30pm 19.0 12.0 6.8 45 6.1 WNW 33 43 18 23 1018.0 1018.0 0.0
14/02:00pm 19.2 12.5 7.3 46 6.0 WNW 32 46 17 25 1018.0 1018.0 0.0
14/01:30pm 19.8 13.6 7.9 46 6.1 WNW 30 43 16 23 1018.2 1018.2 0.0
14/01:19pm 19.4 12.6 6.8 44 6.3 WNW 32 52 17 28 1018.4 1018.4 0.0
14/01:00pm 18.7 12.0 7.2 47 5.8 WNW 32 43 17 23 1018.7 1018.7 0.0
14/12:30pm 18.7 13.3 7.8 49 5.5 WNW 26 39 14 21 1019.0 1019.0 0.0
14/12:00pm 18.4 13.0 7.8 50 5.4 WNW 26 35 14 19 1019.4 1019.4 0.0
14/11:30am 18.8 13.8 8.2 50 5.4 WNW 24 33 13 18 1019.8 1019.8 0.0
14/11:00am 16.7 11.7 8.1 57 4.4 WNW 24 33 13 18 1020.2 1020.2 0.0
14/10:30am 16.5 11.0 7.7 56 4.4 W 26 33 14 18 1020.4 1020.4 0.0
14/10:00am 16.1 11.7 7.6 57 4.2 W 20 30 11 16 1020.6 1020.6 0.0
14/09:30am 15.1 10.8 7.9 62 3.6 W 20 30 11 16 1020.7 1020.7 0.0
14/09:00am 14.2 10.0 7.3 63 3.4 WSW 19 28 10 15 1020.7 1020.7 0.0
14/08:30am 13.8 9.1 7.8 67 3.0 WSW 22 28 12 15 1020.6 1020.6 0.0
14/08:00am 13.4 9.5 8.7 73 2.4 W 19 24 10 13 1020.3 1020.3 0.0
14/07:30am 12.5 10.2 9.1 80 1.7 W 11 17 6 9 1020.0 1020.0 0.0
14/07:00am 11.4 10.0 9.7 89 0.9 WSW 7 9 4 5 1019.9 1019.9 0.0
14/06:30am 10.9 8.7 9.5 91 0.7 W 11 13 6 7 1019.8 1019.8 0.0
14/06:00am 10.2 8.2 8.8 91 0.7 WNW 9 11 5 6 1019.6 1019.6 0.0
14/05:30am 11.2 9.0 9.3 88 0.9 W 11 15 6 8 1019.6 1019.6 0.0
14/05:00am 11.6 9.4 9.5 87 1.1 WNW 11 13 6 7 1019.6 1019.6 0.0
14/04:30am 11.5 9.0 9.6 88 1.0 WNW 13 15 7 8 1019.7 1019.7 0.0
14/04:00am 11.5 9.4 9.6 88 1.0 WNW 11 13 6 7 1019.6 1019.6 0.0
14/03:30am 11.6 9.1 9.7 88 1.0 W 13 17 7 9 1019.8 1019.8 0.0
14/03:00am 11.1 8.5 9.4 89 0.8 WNW 13 17 7 9 1020.0 1020.0 0.0
14/02:30am 11.3 8.6 8.9 85 1.2 WNW 13 15 7 8 1020.5 1020.5 0.0
14/02:00am 11.7 9.7 8.7 82 1.5 WNW 9 13 5 7 1020.9 1020.9 0.0
14/01:30am 12.0 9.5 8.3 78 1.8 W 11 15 6 8 1021.1 1021.1 0.0
14/01:00am 12.2 9.2 7.7 74 2.2 W 13 17 7 9 1021.5 1021.5 0.0
14/12:30am 13.1 10.6 8.0 71 2.5 W 11 13 6 7 1021.4 1021.4 0.0
14/12:00am 13.4 10.4 7.8 69 2.7 W 13 20 7 11 1021.7 1021.7 0.0
 
Date/Time
CDT
Temp
°C
App
Temp
°C
Dew
Point
°C
Rel
Hum
%
Delta-T
°C
Wind Press
QNH
hPa
Press
MSL
hPa
Rain since
9am
mm
Dir  Spd
km/h
Gust
km/h
Spd
kts
Gust
kts
13/11:30pm 13.8 10.5 8.0 68 2.9 WNW 15 20 8 11 1021.8 1021.8 0.0
13/11:00pm 13.9 10.6 8.1 68 2.9 W 15 20 8 11 1022.1 1022.1 0.0
13/10:30pm 13.8 11.2 7.6 66 3.0 W 11 15 6 8 1022.3 1022.3 0.0
13/10:00pm 13.8 10.7 7.3 65 3.2 WSW 13 20 7 11 1022.3 1022.3 0.0
13/09:30pm 13.8 9.9 7.3 65 3.2 W 17 22 9 12 1022.2 1022.2 0.0
13/09:00pm 13.7 9.3 7.2 65 3.2 WSW 20 26 11 14 1022.2 1022.2 0.0
13/08:30pm 13.8 8.7 7.6 66 3.0 WSW 24 32 13 17 1022.0 1022.0 0.0
13/08:00pm 14.2 10.4 7.7 65 3.2 WSW 17 24 9 13 1021.8 1021.8 0.0
13/07:30pm 15.6 10.9 7.9 60 3.8 SW 22 32 12 17 1021.3 1021.3 0.0
13/07:00pm 17.1 12.2 8.5 57 4.4 SW 24 30 13 16 1021.1 1021.1 0.0
13/06:30pm 18.0 15.1 8.3 53 5.0 W 13 26 7 14 1020.8 1020.8 0.0
13/06:00pm 18.3 14.8 8.8 54 4.9 WSW 17 24 9 13 1021.0 1021.0 0.0
13/05:30pm 18.8 14.4 9.0 53 5.1 SW 22 33 12 18 1020.7 1020.7 0.0
13/05:00pm 17.7 11.9 9.3 58 4.4 SSW 30 43 16 23 1021.0 1021.0 0.0
13/04:30pm 19.5 14.9 8.2 48 5.8 W 22 32 12 17 1021.1 1021.1 0.0
13/04:00pm 19.9 14.7 7.3 44 6.4 WNW 24 39 13 21 1020.9 1020.9 0.0
13/03:30pm 21.2 15.9 6.7 39 7.3 WSW 24 33 13 18 1021.1 1021.1 0.0
13/03:00pm 21.5 15.9 7.3 40 7.3 SW 26 35 14 19 1021.2 1021.2 0.0
13/02:30pm 20.7 16.4 7.7 43 6.7 WSW 20 37 11 20 1021.5 1021.5 0.0
13/02:00pm 20.5 14.9 8.8 47 6.2 SW 28 35 15 19 1021.9 1021.9 0.0
13/01:30pm 18.7 13.9 8.7 52 5.2 SSW 24 39 13 21 1022.3 1022.3 0.0
13/01:00pm 18.3 13.4 6.8 47 5.7 SW 22 32 12 17 1022.3 1022.3 0.0
13/12:30pm 18.7 13.8 6.9 46 5.9 SW 22 33 12 18 1022.2 1022.2 0.0
13/12:00pm 19.1 15.2 6.9 45 6.1 WSW 17 32 9 17 1022.4 1022.4 0.0
13/11:30am 18.8 14.4 7.3 47 5.8 SW 20 32 11 17 1022.5 1022.5 0.0
13/11:00am 19.1 14.7 7.2 46 6.0 SW 20 30 11 16 1022.5 1022.5 0.0
13/10:30am 17.7 13.2 6.3 47 5.6 SW 19 32 10 17 1022.7 1022.7 0.0
13/10:17am 16.0 9.7 5.6 50 5.0 WSW 28 37 15 20 1023.0 1023.0 0.0
13/10:00am 17.4 13.1 6.9 50 5.2 SW 19 30 10 16 1023.0 1023.0 0.0
13/09:30am 16.9 12.4 7.0 52 4.9 WSW 20 32 11 17 1022.9 1022.9 0.0
13/09:00am 16.0 11.3 7.7 58 4.1 SW 22 30 12 16 1023.0 1023.0 0.0
13/08:30am 14.5 10.6 8.5 67 3.0 WSW 19 24 10 13 1023.0 1023.0 0.0
13/08:00am 13.3 9.1 8.2 71 2.5 WSW 20 28 11 15 1022.9 1022.9 0.0
13/07:30am 12.2 9.0 8.3 77 1.9 W 15 20 8 11 1022.5 1022.5 0.0
13/07:00am 10.5 7.9 7.6 82 1.4 W 11 15 6 8 1022.5 1022.5 0.0
13/06:30am 9.3 6.4 6.7 84 1.2 W 11 13 6 7 1021.9 1021.9 0.0
13/06:00am 9.6 6.8 6.9 83 1.3 W 11 13 6 7 1021.7 1021.7 0.0
13/05:30am 9.9 6.7 6.8 81 1.4 W 13 15 7 8 1021.4 1021.4 0.0
13/05:00am 10.6 7.6 7.5 81 1.5 W 13 17 7 9 1021.1 1021.1 0.0
13/04:30am 10.6 8.0 7.8 83 1.3 WNW 11 13 6 7 1021.3 1021.3 0.0
13/04:00am 10.8 8.3 8.2 84 1.3 W 11 13 6 7 1021.5 1021.5 0.0
13/03:30am 10.4 7.4 7.8 84 1.2 WNW 13 17 7 9 1021.8 1021.8 0.0
13/03:00am 10.2 7.6 7.6 84 1.2 W 11 13 6 7 1022.2 1022.2 0.0
13/02:30am 9.6 6.5 7.4 86 1.0 W 13 15 7 8 1022.4 1022.4 0.0
13/02:00am 9.4 7.3 6.5 82 1.3 SSW 7 11 4 6 1022.6 1022.6 0.0
13/01:30am 10.1 8.2 7.5 84 1.2 WSW 7 11 4 6 1022.7 1022.7 0.0
13/01:00am 9.0 6.5 6.6 85 1.1 WNW 9 13 5 7 1022.7 1022.7 0.0
13/12:30am 9.7 7.2 6.6 81 1.4 NW 9 13 5 7 1022.9 1022.9 0.0
13/12:00am 10.4 7.5 6.5 77 1.8 WNW 11 13 6 7 1023.1 1023.1 0.0
 
Date/Time
CDT
Temp
°C
App
Temp
°C
Dew
Point
°C
Rel
Hum
%
Delta-T
°C
Wind Press
QNH
hPa
Press
MSL
hPa
Rain since
9am
mm
Dir  Spd
km/h
Gust
km/h
Spd
kts
Gust
kts
12/11:30pm 11.0 8.5 6.7 75 2.0 WNW 9 11 5 6 1023.2 1023.2 0.0
12/11:00pm 10.2 7.5 5.6 73 2.1 WNW 9 11 5 6 1023.2 1023.2 0.0

Other formats

Comma delimited format used in spreadsheet applications
http://www.bom.gov.au/fwo/IDS60801/IDS60801.95807.axf

JavaScript Object Notation format (JSON) in row-major order
http://www.bom.gov.au/fwo/IDS60801/IDS60801.95807.json

Data quality

Most of these data are generated automatically and are frequently updated. Quality checks on data are not normally performed. It is possible for incorrect values to appear. Refer to information at About Latest Weather Observations and please check the disclaimer before using these data.